Time;durP1;ratioP1;P1;durP2;ratioP2;P2;SDS_P1;SDS_P2;PMS_P1;PMS_P2;Temp;Humidity;BMP_temperature;BMP_pressure;BME280_temperature;BME280_humidity;BME280_pressure;Samples;Min_cycle;Max_cycle;Signal;HPM_P1;HPM_P2
2023/06/17 00:02:16;;;;;;;;;;;;;;;17.95;nan;100302.16;5054232;28;20037;-80
2023/06/17 00:04:41;;;;;;;0.10;0.10;;;;;;;;;;5055274;28;19920;-80
2023/06/17 00:07:06;;;;;;;;;;;;;;;17.83;nan;100299.28;5054299;28;20037;-81
2023/06/17 00:09:31;;;;;;;0.10;0.10;;;;;;;;;;5052797;28;20007;-80
2023/06/17 00:11:56;;;;;;;0.10;0.10;;;;;;;;;;5054022;28;20424;-81
2023/06/17 00:14:22;;;;;;;0.10;0.10;;;;;;;;;;5051731;28;20413;-79
2023/06/17 00:16:47;;;;;;;0.05;0.05;;;;;;;;;;5053036;28;20417;-79
2023/06/17 00:19:16;;;;;;;0.00;0.00;;;;;;;;;;5051405;28;20459;-79
2023/06/17 00:21:41;;;;;;;0.00;0.00;;;;;;;;;;5049593;28;20516;-81
2023/06/17 00:24:07;;;;;;;0.00;0.00;;;;;;;;;;5043819;28;20407;-80
2023/06/17 00:26:32;;;;;;;0.00;0.00;;;;;;;;;;5041725;28;20792;-81
2023/06/17 00:28:57;;;;;;;0.00;0.00;;;;;;;;;;5051746;28;20439;-80
2023/06/17 00:31:22;;;;;;;0.00;0.00;;;;;;;;;;5051922;28;20942;-81
2023/06/17 00:33:47;;;;;;;0.00;0.00;;;;;;;;;;5051585;28;20401;-80
2023/06/17 00:36:12;;;;;;;0.00;0.00;;;;;;;;;;5050708;28;20419;-81
2023/06/17 00:38:38;;;;;;;0.00;0.00;;;;;;;;;;5046302;28;20410;-80
2023/06/17 00:41:03;;;;;;;0.00;0.00;;;;;;;;;;5046903;28;20477;-81
2023/06/17 00:43:28;;;;;;;0.00;0.00;;;;;;;;;;5043505;28;20409;-80
2023/06/17 00:45:53;;;;;;;0.00;0.00;;;;;;;;;;5049661;28;20408;-79
2023/06/17 00:48:18;;;;;;;0.00;0.00;;;;;;;;;;5044788;28;20488;-79
2023/06/17 00:50:46;;;;;;;0.00;0.00;;;;;;;;;;5048389;28;20425;-80
2023/06/17 00:53:11;;;;;;;0.00;0.00;;;;;;;;;;5044701;28;20410;-79
2023/06/17 00:55:36;;;;;;;0.00;0.00;;;;;;;;;;5029516;28;20395;-80
2023/06/17 00:58:02;;;;;;;0.00;0.00;;;;;;;;;;5047135;28;20790;-82
2023/06/17 01:00:27;;;;;;;0.00;0.00;;;;;;;;;;5049822;28;20413;-79
2023/06/17 01:02:53;;;;;;;0.00;0.00;;;;;;;;;;5048481;28;20584;-80
2023/06/17 01:05:19;;;;;;;0.00;0.00;;;;;;;;;;5048383;28;20926;-80
2023/06/17 01:07:58;;;;;;;0.00;0.00;;;;;;;;;;5048826;28;20401;-80
2023/06/17 01:10:26;;;;;;;0.00;0.00;;;;;;;;;;5048797;28;20822;-80
2023/06/17 01:12:52;;;;;;;0.00;0.00;;;;;;;;;;5048856;28;20401;-80
2023/06/17 01:15:18;;;;;;;0.00;0.00;;;;;;;22.54;100.00;157150.41;5049396;28;20409;-80
2023/06/17 01:17:46;;;;;;;0.00;0.00;;;;;;;;;;5049128;28;20493;-80
2023/06/17 01:20:12;;;;;;;0.00;0.00;;;;;;;;;;5049175;28;20488;-81
2023/06/17 01:22:37;;;;;;;0.00;0.00;;;;;;;;;;5055461;28;20401;-80
2023/06/17 01:25:03;;;;;;;0.00;0.00;;;;;;;;;;5056890;28;20528;-82
2023/06/17 01:27:29;;;;;;;0.00;0.00;;;;;;;;;;5057169;28;20402;-81
2023/06/17 01:29:54;;;;;;;0.00;0.00;;;;;;;;;;5056495;28;20412;-80
2023/06/17 01:32:19;;;;;;;0.00;0.00;;;;;;;;;;5055777;28;20401;-81
2023/06/17 01:34:55;;;;;;;0.00;0.00;;;;;;;;;;5056074;28;20404;-78
2023/06/17 01:37:23;;;;;;;0.00;0.00;;;;;;;;;;5058364;28;20393;-80
2023/06/17 01:39:49;;;;;;;0.00;0.00;;;;;;;;;;5057117;28;20390;-78
2023/06/17 01:42:18;;;;;;;0.00;0.00;;;;;;;;;;5043999;28;20402;-78
2023/06/17 01:44:44;;;;;;;0.00;0.00;;;;;;;;;;5039251;28;20480;-81
2023/06/17 01:47:09;;;;;;;0.00;0.00;;;;;;;;;;5050097;28;20401;-81
2023/06/17 01:49:36;;;;;;;0.00;0.00;;;;;;;;;;5056528;28;20416;-78
2023/06/17 01:52:02;;;;;;;0.00;0.00;;;;;;;;;;5050921;28;20470;-79
2023/06/17 01:54:27;;;;;;;0.00;0.00;;;;;;;;;;5055428;28;20389;-78
2023/06/17 01:56:53;;;;;;;0.00;0.00;;;;;;;;;;5055384;28;20484;-80
2023/06/17 01:59:18;;;;;;;0.00;0.00;;;;;;;;;;5057857;28;20421;-79
2023/06/17 02:01:43;;;;;;;0.00;0.00;;;;;;;;;;5056957;28;20542;-79
2023/06/17 02:04:08;;;;;;;0.00;0.00;;;;;;;;;;5054416;28;20825;-81
2023/06/17 02:06:33;;;;;;;0.00;0.00;;;;;;;;;;5056456;28;20413;-80
2023/06/17 02:08:58;;;;;;;0.00;0.00;;;;;;;22.42;100.00;159280.41;5062587;28;20488;-81
2023/06/17 02:11:25;;;;;;;0.00;0.00;;;;;;;;;;5068533;28;20435;-81
2023/06/17 02:13:50;;;;;;;0.00;0.00;;;;;;;;;;5068048;28;20428;-79
2023/06/17 02:16:15;;;;;;;0.00;0.00;;;;;;;;;;5068783;28;20496;-80
2023/06/17 02:18:41;;;;;;;0.00;0.00;;;;;;;;;;5069487;28;20468;-80
2023/06/17 02:21:07;;;;;;;0.00;0.00;;;;;;;;;;5070644;28;20393;-80
2023/06/17 02:23:32;;;;;;;0.00;0.00;;;;;;;;;;5066962;28;20480;-81
2023/06/17 02:25:57;;;;;;;0.00;0.00;;;;;;;;;;5053749;28;20451;-80
2023/06/17 02:28:22;;;;;;;0.00;0.00;;;;;;;;;;5054343;28;20481;-80
2023/06/17 02:30:47;;;;;;;0.00;0.00;;;;;;;;;;5054469;28;20408;-80
2023/06/17 02:33:17;;;;;;;0.00;0.00;;;;;;;;;;5052857;28;20400;-80
2023/06/17 02:35:43;;;;;;;0.00;0.00;;;;;;;;;;5051053;28;20413;-80
2023/06/17 02:38:08;;;;;;;0.00;0.00;;;;;;;;;;5050324;28;20496;-80
2023/06/17 02:40:33;;;;;;;0.00;0.00;;;;;;;;;;5051549;28;20397;-80
2023/06/17 02:42:58;;;;;;;0.00;0.00;;;;;;;;;;5051793;28;20398;-80
2023/06/17 02:45:23;;;;;;;0.00;0.00;;;;;;;22.40;100.00;71384.09;5050993;28;20414;-80
2023/06/17 02:47:49;;;;;;;0.00;0.00;;;;;;;;;;5052116;28;20405;-81
2023/06/17 02:50:19;;;;;;;0.00;0.00;;;;;;;;;;5044965;28;20419;-80
2023/06/17 02:52:46;;;;;;;0.00;0.00;;;;;;;;;;5041437;28;20923;-81
2023/06/17 02:55:11;;;;;;;0.00;0.00;;;;;;;;;;5050954;28;20402;-80
2023/06/17 02:57:37;;;;;;;0.00;0.00;;;;;;;22.46;100.00;87211.78;5051978;28;20405;-81
2023/06/17 03:00:04;;;;;;;0.00;0.00;;;;;;;;;;5052522;28;20425;-80
2023/06/17 03:02:29;;;;;;;0.00;0.00;;;;;;;;;;5063744;28;20473;-81
2023/06/17 03:04:55;;;;;;;0.00;0.00;;;;;;;;;;5066691;28;20409;-82
2023/06/17 03:07:20;;;;;;;0.00;0.00;;;;;;;;;;5062030;28;20405;-80
2023/06/17 03:09:45;;;;;;;0.00;0.00;;;;;;;;;;5052575;28;20416;-80
2023/06/17 03:12:11;;;;;;;0.00;0.00;;;;;;;;;;5050845;28;20966;-83
2023/06/17 03:14:36;;;;;;;0.00;0.00;;;;;;;;;;5050022;28;20898;-81
2023/06/17 03:17:02;;;;;;;0.00;0.00;;;;;;;;;;5045928;28;20402;-81
2023/06/17 03:19:28;;;;;;;0.00;0.00;;;;;;;;;;5050443;28;20413;-80
2023/06/17 03:21:53;;;;;;;0.00;0.00;;;;;;;;;;5051184;28;20413;-80
2023/06/17 03:24:19;;;;;;;0.00;0.00;;;;;;;;;;5049867;28;20406;-81
2023/06/17 03:26:45;;;;;;;0.00;0.00;;;;;;;;;;5051691;28;20401;-80
2023/06/17 03:29:10;;;;;;;0.00;0.00;;;;;;;;;;5047246;28;20446;-82
2023/06/17 03:31:35;;;;;;;0.00;0.00;;;;;;;;;;5043274;28;20421;-81
2023/06/17 03:34:00;;;;;;;0.00;0.00;;;;;;;22.71;100.00;87210.38;5052891;28;20421;-82
2023/06/17 03:36:28;;;;;;;0.00;0.00;;;;;;;-143.97;100.00;87209.66;5042275;28;20401;-81
2023/06/17 03:38:53;;;;;;;0.00;0.00;;;;;;;;;;5053725;28;20805;-81
2023/06/17 03:41:19;;;;;;;0.00;0.00;;;;;;;;;;5053342;28;20497;-80
2023/06/17 03:43:44;;;;;;;0.00;0.00;;;;;;;;;;5035302;28;20399;-81
2023/06/17 03:46:10;;;;;;;0.00;0.00;;;;;;;;;;5053335;28;21031;-80
2023/06/17 03:48:35;;;;;;;0.00;0.00;;;;;;;;;;5048923;28;21057;-80
2023/06/17 03:51:02;;;;;;;0.00;0.00;;;;;;;;;;5051626;28;20922;-82
2023/06/17 03:53:27;;;;;;;0.00;0.00;;;;;;;;;;5052752;28;20421;-81
2023/06/17 03:55:52;;;;;;;0.00;0.00;;;;;;;;;;5063689;28;20412;-81
2023/06/17 03:58:17;;;;;;;0.00;0.00;;;;;;;;;;5058771;28;20400;-80
2023/06/17 04:00:42;;;;;;;0.00;0.00;;;;;;;;;;5064423;28;20398;-82
2023/06/17 04:03:08;;;;;;;0.00;0.00;;;;;;;;;;5057481;28;20417;-80
2023/06/17 04:05:33;;;;;;;0.00;0.00;;;;;;;;;;5057085;28;21097;-81
2023/06/17 04:07:59;;;;;;;0.00;0.00;;;;;;;;;;5061743;28;20420;-80
2023/06/17 04:10:24;;;;;;;0.00;0.00;;;;;;;;;;5060125;28;20489;-81
2023/06/17 04:12:50;;;;;;;0.00;0.00;;;;;;;;;;5054303;28;20415;-80
2023/06/17 04:15:15;;;;;;;0.00;0.00;;;;;;;;;;5065377;28;20416;-81
2023/06/17 04:17:40;;;;;;;0.00;0.00;;;;;;;;;;5064270;28;21160;-80
2023/06/17 04:20:10;;;;;;;0.00;0.00;;;;;;;;;;5057494;28;20931;-81
2023/06/17 04:22:36;;;;;;;0.00;0.00;;;;;;;;;;5059152;28;20431;-80
2023/06/17 04:25:01;;;;;;;0.00;0.00;;;;;;;;;;5054912;28;20754;-79
2023/06/17 04:27:27;;;;;;;0.00;0.00;;;;;;;;;;5059039;28;20419;-82
2023/06/17 04:29:56;;;;;;;0.00;0.00;;;;;;;22.39;100.00;54025.69;5057618;28;20441;-81
2023/06/17 04:32:21;;;;;;;0.00;0.00;;;;;;;;;;5058713;28;20792;-80
2023/06/17 04:34:47;;;;;;;0.00;0.00;;;;;;;;;;5061269;28;20407;-80
2023/06/17 04:37:14;;;;;;;0.00;0.00;;;;;;;;;;5062878;28;20807;-80
2023/06/17 04:39:39;;;;;;;0.00;0.00;;;;;;;;;;5055706;28;20466;-81
2023/06/17 04:42:04;;;;;;;0.00;0.00;;;;;;;;;;5052386;28;20437;-82
2023/06/17 04:44:31;;;;;;;0.00;0.00;;;;;;;;;;5051149;28;20858;-82
2023/06/17 04:46:58;;;;;;;0.00;0.00;;;;;;;;;;5058666;28;20422;-81
2023/06/17 04:49:24;;;;;;;0.00;0.00;;;;;;;-144.63;100.00;87210.38;5061233;28;20469;-81
2023/06/17 04:51:49;;;;;;;0.00;0.00;;;;;;;;;;5053444;28;20405;-81
2023/06/17 04:54:14;;;;;;;0.00;0.00;;;;;;;;;;5049938;28;20884;-80
2023/06/17 04:56:40;;;;;;;0.00;0.00;;;;;;;;;;5050151;28;20408;-81
2023/06/17 04:59:05;;;;;;;0.00;0.00;;;;;;;;;;5054054;28;20426;-81
2023/06/17 05:01:30;;;;;;;0.00;0.00;;;;;;;;;;5062689;28;20412;-81
2023/06/17 05:03:56;;;;;;;0.00;0.00;;;;;;;;;;5064959;28;20411;-81
2023/06/17 05:06:21;;;;;;;0.00;0.00;;;;;;;;;;5055303;28;20443;-81
2023/06/17 05:08:46;;;;;;;0.00;0.00;;;;;;;;;;5050632;28;20419;-81
2023/06/17 05:11:11;;;;;;;0.00;0.00;;;;;;;;;;5057455;28;20469;-81
2023/06/17 05:13:38;;;;;;;0.00;0.00;;;;;;;;;;5051048;28;20866;-80
2023/06/17 05:16:03;;;;;;;0.00;0.00;;;;;;;;;;5051169;28;20435;-80
2023/06/17 05:18:28;;;;;;;0.00;0.00;;;;;;;;;;5058194;28;20400;-80
2023/06/17 05:20:53;;;;;;;0.00;0.00;;;;;;;;;;5063848;28;20494;-80
2023/06/17 05:23:18;;;;;;;0.00;0.00;;;;;;;;;;5049234;28;20910;-80
2023/06/17 05:25:44;;;;;;;0.00;0.00;;;;;;;;;;5064285;28;20465;-81
2023/06/17 05:28:10;;;;;;;0.00;0.00;;;;;;;;;;5048978;28;21158;-80
2023/06/17 05:30:35;;;;;;;0.00;0.00;;;;;;;;;;5066324;28;20917;-80
2023/06/17 05:33:01;;;;;;;0.00;0.00;;;;;;;;;;5061581;28;20411;-80
2023/06/17 05:35:27;;;;;;;0.00;0.00;;;;;;;;;;5063251;28;20408;-80
2023/06/17 05:37:52;;;;;;;0.00;0.00;;;;;;;;;;5054033;28;20409;-81
2023/06/17 05:40:18;;;;;;;0.00;0.00;;;;;;;;;;5055462;28;20404;-80
2023/06/17 05:42:43;;;;;;;0.00;0.00;;;;;;;;;;5055908;28;20400;-80
2023/06/17 05:45:08;;;;;;;0.00;0.00;;;;;;;;;;5046750;28;20899;-80
2023/06/17 05:47:33;;;;;;;0.00;0.00;;;;;;;;;;5058490;28;20479;-80
2023/06/17 05:49:59;;;;;;;0.00;0.00;;;;;;;;;;5054321;28;20428;-82
2023/06/17 05:52:24;;;;;;;0.00;0.00;;;;;;;;;;5055665;28;20419;-81
2023/06/17 05:54:49;;;;;;;0.00;0.00;;;;;;;;;;5055508;28;20401;-81
2023/06/17 05:57:15;;;;;;;0.00;0.00;;;;;;;;;;5064748;28;21057;-80
2023/06/17 05:59:40;;;;;;;0.00;0.00;;;;;;;;;;5058670;28;20411;-80
2023/06/17 06:02:05;;;;;;;0.00;0.00;;;;;;;;;;5047612;28;20428;-80
2023/06/17 06:04:30;;;;;;;0.00;0.00;;;;;;;;;;5053397;28;20447;-80
2023/06/17 06:06:56;;;;;;;0.00;0.00;;;;;;;;;;5054871;28;20469;-81
2023/06/17 06:09:21;;;;;;;0.00;0.00;;;;;;;;;;5059735;28;20415;-82
2023/06/17 06:11:46;;;;;;;0.00;0.00;;;;;;;;;;5065795;28;20526;-82
2023/06/17 06:14:11;;;;;;;0.00;0.00;;;;;;;;;;5072885;28;20490;-81
2023/06/17 06:16:36;;;;;;;0.00;0.00;;;;;;;;;;5057917;28;20413;-81
2023/06/17 06:19:02;;;;;;;0.00;0.00;;;;;;;;;;5057414;28;20429;-83
2023/06/17 06:21:27;;;;;;;0.00;0.00;;;;;;;;;;5067345;28;20471;-81
2023/06/17 06:23:52;;;;;;;0.00;0.00;;;;;;;;;;5072616;28;20408;-83
2023/06/17 06:26:18;;;;;;;0.00;0.00;;;;;;;;;;5071211;28;20423;-82
2023/06/17 06:28:43;;;;;;;0.00;0.00;;;;;;;;;;5066724;28;20434;-82
2023/06/17 06:31:08;;;;;;;0.00;0.00;;;;;;;;;;5056080;28;20408;-82
2023/06/17 06:33:35;;;;;;;0.00;0.00;;;;;;;;;;5056120;28;20409;-81
2023/06/17 06:36:00;;;;;;;0.00;0.00;;;;;;;;;;5067669;28;20727;-83
2023/06/17 06:38:25;;;;;;;0.00;0.00;;;;;;;;;;5063325;28;20416;-82
2023/06/17 06:40:50;;;;;;;0.00;0.00;;;;;;;;;;5062267;28;20435;-82
2023/06/17 06:43:16;;;;;;;0.00;0.00;;;;;;;;;;5058153;28;20416;-82
2023/06/17 06:45:41;;;;;;;0.00;0.00;;;;;;;;;;5064220;28;20770;-82
2023/06/17 06:48:06;;;;;;;0.00;0.00;;;;;;;;;;5063851;28;20885;-83
2023/06/17 06:50:33;;;;;;;0.00;0.00;;;;;;;;;;5063315;28;20388;-84
2023/06/17 06:52:58;;;;;;;0.00;0.00;;;;;;;;;;5066608;28;20439;-83
2023/06/17 06:55:23;;;;;;;0.00;0.00;;;;;;;;;;5061493;28;20821;-84
2023/06/17 06:57:48;;;;;;;0.00;0.00;;;;;;;;;;5058418;28;20410;-82
2023/06/17 07:00:14;;;;;;;0.00;0.00;;;;;;;;;;5061844;28;21572;-83
2023/06/17 07:02:39;;;;;;;0.00;0.00;;;;;;;;;;5064319;28;20998;-79
2023/06/17 07:05:04;;;;;;;0.00;0.00;;;;;;;;;;5068716;28;20430;-82
2023/06/17 07:07:30;;;;;;;0.00;0.00;;;;;;;;;;5062205;28;20508;-84
2023/06/17 07:09:55;;;;;;;0.00;0.00;;;;;;;;;;5055669;28;20413;-79
2023/06/17 07:12:20;;;;;;;0.00;0.00;;;;;;;;;;5061112;28;20438;-80
2023/06/17 07:14:46;;;;;;;0.00;0.00;;;;;;;;;;5070244;28;20402;-79
2023/06/17 07:17:11;;;;;;;0.00;0.00;;;;;;;;;;5067097;28;21354;-79
2023/06/17 07:19:36;;;;;;;0.00;0.00;;;;;;;;;;5059267;28;20475;-80
2023/06/17 07:22:01;;;;;;;0.00;0.00;;;;;;;;;;5058963;28;20424;-80
2023/06/17 07:24:26;;;;;;;0.00;0.00;;;;;;;;;;5055901;28;20406;-81
2023/06/17 07:26:52;;;;;;;0.00;0.00;;;;;;;;;;5061665;28;20422;-79
2023/06/17 07:29:17;;;;;;;0.00;0.00;;;;;;;32.02;nan;100381.63;5066423;28;20414;-80
2023/06/17 07:31:42;;;;;;;0.00;0.00;;;;;;;31.52;nan;100423.91;5063517;28;20096;-80
2023/06/17 07:34:07;;;;;;;0.00;0.00;;;;;;;;;;5059671;28;20124;-79
2023/06/17 07:36:33;;;;;;;0.00;0.00;;;;;;;31.25;nan;100399.09;5053047;28;20041;-79
2023/06/17 07:38:58;;;;;;;0.00;0.00;;;;;;;30.94;nan;100399.50;5066726;28;20621;-80
2023/06/17 07:41:24;;;;;;;0.00;0.00;;;;;;;31.10;nan;100392.72;5065099;28;20036;-81
2023/06/17 07:43:49;;;;;;;0.00;0.00;;;;;;;31.01;nan;100399.13;5068446;28;20037;-81
2023/06/17 07:46:16;;;;;;;0.00;0.00;;;;;;;31.19;nan;100408.47;5056061;28;20064;-80
2023/06/17 07:48:41;;;;;;;0.00;0.00;;;;;;;;;;5062473;28;20033;-81
2023/06/17 07:51:07;;;;;;;0.00;0.00;;;;;;;31.69;nan;100397.97;5063158;28;20427;-80
2023/06/17 07:53:32;;;;;;;0.00;0.00;;;;;;;;;;5070033;28;20053;-79
2023/06/17 07:55:57;;;;;;;0.00;0.00;;;;;;;31.82;nan;100399.97;5063676;28;20538;-82
2023/06/17 07:58:22;;;;;;;0.00;0.00;;;;;;;;;;5065893;28;20033;-80
2023/06/17 08:00:47;;;;;;;0.00;0.00;;;;;;;31.98;nan;100366.91;5079456;28;20279;-80
2023/06/17 08:03:13;;;;;;;0.00;0.00;;;;;;;32.15;nan;100394.53;5071585;28;20160;-82
2023/06/17 08:05:39;;;;;;;0.00;0.00;;;;;;;32.41;nan;100391.34;5061164;28;20467;-82
2023/06/17 08:08:04;;;;;;;0.00;0.00;;;;;;;32.71;nan;100411.91;5067475;28;20127;-80
2023/06/17 08:10:30;;;;;;;0.00;0.00;;;;;;;32.90;nan;100430.97;5071617;28;20474;-80
2023/06/17 08:12:55;;;;;;;0.00;0.00;;;;;;;32.88;nan;100383.91;5065195;28;20072;-79
2023/06/17 08:15:21;;;;;;;0.00;0.00;;;;;;;33.36;nan;100345.09;5080626;28;20056;-80
2023/06/17 08:17:48;;;;;;;0.00;0.00;;;;;;;;;;5084181;28;20062;-82
2023/06/17 08:20:13;;;;;;;0.00;0.00;;;;;;;33.89;nan;100401.19;5075751;28;20036;-79
2023/06/17 08:22:39;;;;;;;0.00;0.00;;;;;;;;;;5065159;28;20116;-78
2023/06/17 08:25:05;;;;;;;0.00;0.00;;;;;;;34.16;nan;100357.19;5076858;28;20697;-83
2023/06/17 08:27:30;;;;;;;0.00;0.00;;;;;;;34.40;nan;100367.00;5070309;28;20083;-81
2023/06/17 08:29:56;;;;;;;0.00;0.00;;;;;;;34.67;nan;100382.47;5050520;28;20029;-81
2023/06/17 08:32:21;;;;;;;0.00;0.00;;;;;;;;;;5057701;28;20059;-81
2023/06/17 08:34:46;;;;;;;0.00;0.00;;;;;;;34.62;nan;100380.69;5059177;28;20268;-79
2023/06/17 08:37:11;;;;;;;0.00;0.00;;;;;;;;;;5064586;28;20408;-80
2023/06/17 08:39:39;;;;;;;0.00;0.00;;;;;;;;;;5064266;28;20116;-80
2023/06/17 08:42:05;;;;;;;0.00;0.00;;;;;;;35.30;nan;100377.63;5053635;28;20052;-79
2023/06/17 08:44:33;;;;;;;0.00;0.00;;;;;;;35.64;nan;100376.06;5053933;28;20056;-83
2023/06/17 08:47:02;;;;;;;0.00;0.00;;;;;;;35.92;nan;100412.28;5062202;28;20572;-79
2023/06/17 08:49:28;;;;;;;0.00;0.00;;;;;;;36.08;nan;100369.34;5066415;28;20032;-82
2023/06/17 08:51:53;;;;;;;0.00;0.00;;;;;;;36.09;nan;100375.69;5063988;28;20059;-78
2023/06/17 08:54:19;;;;;;;0.00;0.00;;;;;;;;;;5071617;28;20040;-81
2023/06/17 08:56:45;;;;;;;0.00;0.00;;;;;;;36.47;nan;100370.25;5068578;28;20048;-80
2023/06/17 08:59:10;;;;;;;0.00;0.00;;;;;;;36.63;nan;100389.81;5061478;28;20040;-81
2023/06/17 09:01:38;;;;;;;0.00;0.00;;;;;;;37.13;nan;100371.72;5073183;28;20043;-81
2023/06/17 09:04:04;;;;;;;0.00;0.00;;;;;;;37.00;nan;100348.75;5071130;28;20298;-82
2023/06/17 09:06:31;;;;;;;0.00;0.00;;;;;;;35.65;nan;100406.00;5080941;28;20044;-79
2023/06/17 09:08:57;;;;;;;0.00;0.00;;;;;;;;;;5060214;28;20100;-79
2023/06/17 09:11:28;;;;;;;0.00;0.00;;;;;;;35.72;nan;100420.06;5065529;28;20028;-81
2023/06/17 09:13:54;;;;;;;;;;;;;;;36.06;nan;100357.84;5065259;28;20037;-80
2023/06/17 09:16:34;;;;;;;0.00;0.00;;;;;;;;;;5076827;28;19916;-78
2023/06/17 09:19:02;;;;;;;0.00;0.00;;;;;;;35.89;nan;100344.16;5077128;28;20048;-79
2023/06/17 09:21:28;;;;;;;0.00;0.00;;;;;;;36.12;nan;100348.34;5078407;28;20040;-78
2023/06/17 09:23:58;;;;;;;0.00;0.00;;;;;;;36.31;nan;100377.44;5076189;28;20096;-80
2023/06/17 09:26:35;;;;;;;0.00;0.00;;;;;;;37.17;nan;100325.81;5068377;28;20052;-78
2023/06/17 09:29:11;;;;;;;0.00;0.00;;;;;;;37.79;nan;100344.25;5064380;28;20090;-79
2023/06/17 09:32:06;;;;;;;0.00;0.00;;;;;;;36.54;nan;100329.22;5075080;28;20115;-82
2023/06/17 09:34:31;;;;;;;0.00;0.00;;;;;;;36.93;nan;100354.00;5037519;28;20207;-82
2023/06/17 09:37:01;;;;;;;0.00;0.00;;;;;;;36.97;nan;100383.31;5055880;28;20116;-82
2023/06/17 09:39:31;;;;;;;0.00;0.00;;;;;;;37.78;nan;100337.13;5072920;28;20043;-80
2023/06/17 09:41:56;;;;;;;0.00;0.00;;;;;;;37.32;nan;100321.63;5063961;28;20129;-80
2023/06/17 09:44:23;;;;;;;0.00;0.00;;;;;;;37.40;nan;100329.03;5072011;28;20037;-80
2023/06/17 09:46:50;;;;;;;0.00;0.00;;;;;;;36.33;nan;100331.09;5066950;28;20125;-82
2023/06/17 09:49:23;;;;;;;0.00;0.00;;;;;;;36.80;nan;100339.31;5070680;28;20057;-83
2023/06/17 09:51:51;;;;;;;0.00;0.00;;;;;;;36.31;nan;100367.22;5069818;28;20032;-80
2023/06/17 09:54:17;;;;;;;0.00;0.00;;;;;;;37.23;nan;100316.16;5082211;28;20039;-82
2023/06/17 09:56:44;;;;;;;0.00;0.00;;;;;;;36.96;nan;100314.72;5075027;28;20433;-82
2023/06/17 09:59:10;;;;;;;0.00;0.00;;;;;;;36.98;nan;100318.78;5070651;28;20029;-82
2023/06/17 10:01:39;;;;;;;0.00;0.00;;;;;;;36.94;nan;100317.81;5067198;28;20036;-82
2023/06/17 10:04:07;;;;;;;0.00;0.00;;;;;;;37.07;nan;100315.19;5071009;28;20425;-81
2023/06/17 10:06:35;;;;;;;0.00;0.00;;;;;;;37.02;nan;100318.91;5080807;28;20066;-82
2023/06/17 10:09:08;;;;;;;0.00;0.00;;;;;;;37.63;nan;100320.41;5068538;28;20047;-79
2023/06/17 10:11:37;;;;;;;0.00;0.00;;;;;;;37.20;nan;100309.38;5062385;28;20055;-82
2023/06/17 10:14:07;;;;;;;0.00;0.00;;;;;;;37.73;nan;100315.25;5066388;28;20033;-83
2023/06/17 10:16:40;;;;;;;0.00;0.00;;;;;;;37.03;nan;100314.22;5067307;28;20049;-81
2023/06/17 10:19:09;;;;;;;0.00;0.00;;;;;;;37.81;nan;100350.25;5077973;28;20598;-81
2023/06/17 10:21:39;;;;;;;0.00;0.00;;;;;;;38.09;nan;100304.66;5059027;28;20036;-83
2023/06/17 10:24:05;;;;;;;0.00;0.00;;;;;;;38.43;nan;100325.53;5067669;28;20052;-82
2023/06/17 10:26:31;;;;;;;0.00;0.00;;;;;;;38.20;nan;100306.63;5061223;28;20101;-83
2023/06/17 10:29:06;;;;;;;0.00;0.00;;;;;;;39.27;nan;100327.75;5074000;28;20651;-80
2023/06/17 10:31:32;;;;;;;0.00;0.00;;;;;;;40.37;nan;100295.13;5060453;28;20033;-82
2023/06/17 10:34:01;;;;;;;0.00;0.00;;;;;;;40.62;nan;100282.66;5055754;28;20071;-81
2023/06/17 10:36:27;;;;;;;0.00;0.00;;;;;;;39.46;nan;100294.75;5062553;28;20425;-80
2023/06/17 10:38:55;;;;;;;0.00;0.00;;;;;;;38.32;nan;100314.13;5070416;28;20037;-82
2023/06/17 10:41:21;;;;;;;0.00;0.00;;;;;;;36.47;nan;100276.63;5066269;28;20037;-82
2023/06/17 10:43:49;;;;;;;0.00;0.00;;;;;;;36.56;nan;100282.84;5074855;28;20067;-81
2023/06/17 10:46:22;;;;;;;0.00;0.00;;;;;;;37.32;nan;100283.00;5073997;28;20037;-81
2023/06/17 10:48:48;;;;;;;0.00;0.00;;;;;;;37.43;nan;100284.22;5066452;28;20234;-82
2023/06/17 10:51:14;;;;;;;0.00;0.00;;;;;;;;;;5060402;28;20129;-83
2023/06/17 10:53:47;;;;;;;0.00;0.00;;;;;;;38.03;nan;100335.25;5067720;28;20279;-83
2023/06/17 10:56:12;;;;;;;0.00;0.00;;;;;;;38.50;nan;100281.59;5064438;28;20032;-83
2023/06/17 10:58:44;;;;;;;0.00;0.00;;;;;;;38.61;nan;100291.00;5059064;28;20044;-83
2023/06/17 11:01:11;;;;;;;0.00;0.00;;;;;;;38.74;nan;100291.81;5055040;28;20303;-83
2023/06/17 11:03:37;;;;;;;0.00;0.00;;;;;;;39.16;nan;100290.69;5048160;28;20066;-84
2023/06/17 11:06:04;;;;;;;0.00;0.00;;;;;;;39.93;nan;100284.94;5054405;28;20092;-80
2023/06/17 11:08:32;;;;;;;0.00;0.00;;;;;;;39.76;nan;100290.75;5057317;28;20426;-82
2023/06/17 11:11:16;;;;;;;0.00;0.00;;;;;;;40.04;nan;100290.72;5050777;28;20080;-82
2023/06/17 11:13:44;;;;;;;0.00;0.00;;;;;;;40.66;nan;100296.59;5056362;28;20029;-82
2023/06/17 11:16:10;;;;;;;0.00;0.00;;;;;;;41.12;nan;100281.03;5056224;28;20128;-83
2023/06/17 11:18:41;;;;;;;0.00;0.00;;;;;;;41.61;nan;100309.34;5059829;28;20036;-82
2023/06/17 11:21:07;;;;;;;0.00;0.00;;;;;;;39.86;nan;100312.44;5064423;28;20044;-82
2023/06/17 11:23:34;;;;;;;0.00;0.00;;;;;;;39.89;nan;100262.69;5074846;28;20032;-83
2023/06/17 11:26:00;;;;;;;0.00;0.00;;;;;;;39.35;nan;100281.72;5062357;28;20032;-83
2023/06/17 11:28:26;;;;;;;0.00;0.00;;;;;;;39.90;nan;100264.31;5061426;28;20044;-82
2023/06/17 11:30:51;;;;;;;0.00;0.00;;;;;;;39.72;nan;100263.00;5058479;28;20383;-83
2023/06/17 11:33:20;;;;;;;0.00;0.00;;;;;;;39.48;nan;100284.13;5062351;28;20037;-82
2023/06/17 11:35:48;;;;;;;0.00;0.00;;;;;;;39.77;nan;100259.97;5057731;28;20033;-82
2023/06/17 11:38:16;;;;;;;0.00;0.00;;;;;;;39.70;nan;100323.44;5060009;28;20044;-83
2023/06/17 11:40:42;;;;;;;0.00;0.00;;;;;;;38.45;nan;100284.56;5050456;28;21074;-82
2023/06/17 11:43:07;;;;;;;0.00;0.00;;;;;;;39.08;nan;100262.81;5055004;28;20045;-83
2023/06/17 11:45:34;;;;;;;0.00;0.00;;;;;;;39.06;nan;100269.84;5067080;28;20033;-83
2023/06/17 11:47:59;;;;;;;0.00;0.00;;;;;;;39.02;nan;100263.41;5053442;28;20029;-82
2023/06/17 11:50:30;;;;;;;0.00;0.00;;;;;;;39.23;nan;100296.41;5064692;28;20047;-81
2023/06/17 11:52:58;;;;;;;0.00;0.00;;;;;;;38.88;nan;100263.78;5061512;28;20055;-83
2023/06/17 11:55:34;;;;;;;0.00;0.00;;;;;;;38.49;nan;100255.09;5056089;28;20068;-83
2023/06/17 11:58:01;;;;;;;0.00;0.00;;;;;;;39.65;nan;100252.56;5066711;28;20094;-82
2023/06/17 12:00:28;;;;;;;0.00;0.00;;;;;;;39.56;nan;100257.44;5060801;28;20040;-83
2023/06/17 12:02:55;;;;;;;0.00;0.00;;;;;;;38.31;nan;100278.59;5064438;28;20051;-82
2023/06/17 12:05:20;;;;;;;0.00;0.00;;;;;;;39.05;nan;100246.94;5062634;28;20051;-83
2023/06/17 12:07:46;;;;;;;0.00;0.00;;;;;;;37.03;nan;100250.81;5051927;28;20495;-81
2023/06/17 12:10:11;;;;;;;0.00;0.00;;;;;;;35.16;nan;100247.78;5050189;28;20399;-83
2023/06/17 12:12:37;;;;;;;0.00;0.00;;;;;;;36.28;nan;100235.72;5060708;28;20043;-82
2023/06/17 12:15:06;;;;;;;0.00;0.00;;;;;;;37.33;nan;100241.31;5059637;28;20168;-80
2023/06/17 12:17:41;;;;;;;0.00;0.00;;;;;;;38.20;nan;100245.09;5061349;28;20044;-81
2023/06/17 12:20:21;;;;;;;0.00;0.00;;;;;;;38.14;nan;100236.22;5081828;28;20025;-80
2023/06/17 12:22:50;;;;;;;0.00;0.00;;;;;;;;;;5068536;28;20029;-79
2023/06/17 12:25:16;;;;;;;0.00;0.00;;;;;;;;;;5070509;28;20140;-83
2023/06/17 12:27:42;;;;;;;0.00;0.00;;;;;;;;;;5052576;28;20472;-82
2023/06/17 12:30:09;;;;;;;0.00;0.00;;;;;;;35.47;nan;100217.38;5058259;28;20037;-83
2023/06/17 12:32:36;;;;;;;0.00;0.00;;;;;;;35.97;nan;100205.75;5065473;28;20033;-82
2023/06/17 12:35:02;;;;;;;0.00;0.00;;;;;;;35.82;nan;100222.78;5056351;28;20135;-80
2023/06/17 12:37:28;;;;;;;0.00;0.00;;;;;;;36.10;nan;100221.22;5061508;28;20025;-82
2023/06/17 12:39:57;;;;;;;0.00;0.00;;;;;;;34.72;nan;100209.28;5055529;28;20102;-80
2023/06/17 12:42:23;;;;;;;0.00;0.00;;;;;;;35.33;nan;100216.72;5072300;28;20033;-82
2023/06/17 12:44:50;;;;;;;0.00;0.00;;;;;;;35.30;nan;100213.50;5059391;28;20092;-83
2023/06/17 12:47:15;;;;;;;0.00;0.00;;;;;;;35.16;nan;100201.88;5068029;28;20040;-82
2023/06/17 12:49:41;;;;;;;0.00;0.00;;;;;;;35.09;nan;100190.56;5068636;28;20033;-83
2023/06/17 12:52:07;;;;;;;0.00;0.00;;;;;;;34.41;nan;100242.31;5072617;28;20552;-82
2023/06/17 12:54:33;;;;;;;0.00;0.00;;;;;;;34.69;nan;100231.91;5062997;28;20037;-82
2023/06/17 12:56:58;;;;;;;0.00;0.00;;;;;;;34.38;nan;100194.34;5067378;28;20043;-82
2023/06/17 12:59:23;;;;;;;0.00;0.00;;;;;;;33.99;nan;100165.00;5072639;28;20048;-83
2023/06/17 13:01:48;;;;;;;0.00;0.00;;;;;;;;;;5065867;28;20373;-84
2023/06/17 13:04:14;;;;;;;0.00;0.00;;;;;;;;;;5064569;28;20334;-82
2023/06/17 13:06:39;;;;;;;0.00;0.00;;;;;;;32.95;nan;100166.00;5071775;28;20040;-82
2023/06/17 13:09:04;;;;;;;0.00;0.00;;;;;;;;;;5063195;28;20052;-83
2023/06/17 13:11:29;;;;;;;0.00;0.00;;;;;;;;;;5064720;28;20036;-83
2023/06/17 13:13:55;;;;;;;0.00;0.00;;;;;;;32.67;nan;100175.41;5079427;28;20052;-81
2023/06/17 13:16:22;;;;;;;0.00;0.00;;;;;;;32.41;nan;100166.94;5070459;28;20056;-80